createdAt,value
2019-05-21T00:00:31.845Z,98921.93
2019-05-21T00:02:06.553Z,98921.05
2019-05-21T00:03:41.514Z,98923.33
2019-05-21T00:05:15.894Z,98919.63
2019-05-21T00:06:50.851Z,98922.33
2019-05-21T00:08:25.547Z,98926.29
2019-05-21T00:10:00.800Z,98925.46
2019-05-21T00:11:35.322Z,98935.35
2019-05-21T00:13:10.247Z,98936.84
2019-05-21T00:14:44.643Z,98938.20
2019-05-21T00:16:19.839Z,98930.05
2019-05-21T00:17:54.810Z,98934.30
2019-05-21T00:19:29.730Z,98943.27
2019-05-21T00:21:04.577Z,98940.98
2019-05-21T00:22:39.600Z,98946.65
2019-05-21T00:24:14.516Z,98946.04
2019-05-21T00:25:49.752Z,98949.55
2019-05-21T00:27:24.120Z,98942.77
2019-05-21T00:29:34.974Z,98949.19
2019-05-21T00:31:45.774Z,98949.59
2019-05-21T00:33:56.893Z,98954.91
2019-05-21T00:36:07.841Z,98955.88
2019-05-21T00:38:18.214Z,98954.82
2019-05-21T00:40:29.191Z,98960.28
2019-05-21T00:42:03.543Z,98958.53
2019-05-21T00:43:50.562Z,98962.83
2019-05-21T00:45:25.534Z,98959.63
2019-05-21T00:46:59.926Z,98961.19
2019-05-21T00:48:34.857Z,98968.94
2019-05-21T00:50:10.860Z,98965.52
2019-05-21T00:51:45.846Z,98970.58
2019-05-21T00:53:20.273Z,98969.77
2019-05-21T00:54:55.705Z,98967.75
2019-05-21T00:56:30.467Z,98978.73
2019-05-21T00:58:05.741Z,98981.80
2019-05-21T00:59:40.226Z,98980.25
2019-05-21T01:01:15.484Z,98982.00
2019-05-21T01:02:50.194Z,98980.37
2019-05-21T01:04:25.436Z,98981.25
2019-05-21T01:06:00.350Z,98984.34
2019-05-21T01:07:35.743Z,98980.32
2019-05-21T01:09:10.183Z,98977.81
2019-05-21T01:10:45.121Z,98982.86
2019-05-21T01:12:19.511Z,98976.73
2019-05-21T01:13:54.455Z,98972.45
2019-05-21T01:15:28.899Z,98974.14
2019-05-21T01:17:04.059Z,98973.34
2019-05-21T01:18:38.446Z,98969.11
2019-05-21T01:20:13.441Z,98975.55
2019-05-21T01:21:47.873Z,98975.36
2019-05-21T01:23:23.151Z,98986.23
2019-05-21T01:24:57.540Z,98979.01
2019-05-21T01:26:32.535Z,98983.20
2019-05-21T01:28:06.994Z,98981.27
2019-05-21T01:29:41.928Z,98979.84
2019-05-21T01:31:16.297Z,98983.20
2019-05-21T01:32:51.260Z,98989.36
2019-05-21T01:34:25.869Z,98988.82
2019-05-21T01:36:00.827Z,98990.03
2019-05-21T01:37:35.342Z,98991.96
2019-05-21T01:39:10.264Z,98993.05
2019-05-21T01:40:44.637Z,98990.63
2019-05-21T01:42:19.557Z,98986.56
2019-05-21T01:43:53.998Z,98982.25
2019-05-21T01:45:29.197Z,98983.90
2019-05-21T01:47:03.647Z,98984.28
2019-05-21T01:48:38.587Z,98987.23
2019-05-21T01:50:13.471Z,98988.80
2019-05-21T01:51:48.457Z,98980.86
2019-05-21T01:53:22.929Z,98983.66
2019-05-21T01:54:57.867Z,98993.25
2019-05-21T01:56:32.503Z,98996.81
2019-05-21T01:58:07.785Z,99002.20
2019-05-21T01:59:42.158Z,98996.98
2019-05-21T02:01:17.085Z,98994.59
2019-05-21T02:02:51.574Z,98991.59
2019-05-21T02:04:26.534Z,98991.28
2019-05-21T02:06:01.344Z,98992.28
2019-05-21T02:07:36.990Z,98997.58
2019-05-21T02:09:11.767Z,98999.94
2019-05-21T02:10:47.639Z,99002.92
2019-05-21T02:12:22.431Z,99001.53
2019-05-21T02:13:57.948Z,98999.53
2019-05-21T02:15:32.728Z,99003.37
2019-05-21T02:17:08.277Z,99003.67
2019-05-21T02:18:43.079Z,99003.08
2019-05-21T02:20:18.767Z,99006.94
2019-05-21T02:21:53.551Z,99009.56
2019-05-21T02:23:29.060Z,99010.33
2019-05-21T02:25:04.471Z,99008.43
2019-05-21T02:26:40.468Z,99007.42
2019-05-21T02:28:15.229Z,99012.13
2019-05-21T02:29:51.124Z,99019.33
2019-05-21T02:31:25.958Z,99013.45
2019-05-21T02:33:01.728Z,99016.69
2019-05-21T02:34:36.498Z,99014.23
2019-05-21T02:36:12.643Z,99016.50
2019-05-21T02:37:47.742Z,99017.42
2019-05-21T02:39:23.245Z,99011.61
2019-05-21T02:40:58.191Z,99012.12
2019-05-21T02:42:33.886Z,99014.38
2019-05-21T02:44:08.689Z,99018.92
2019-05-21T02:45:44.625Z,99019.81
2019-05-21T02:47:19.457Z,99019.61
2019-05-21T02:48:55.008Z,99018.56
2019-05-21T02:50:30.110Z,99017.72
2019-05-21T02:52:06.172Z,99018.44
2019-05-21T02:53:40.941Z,99014.86
2019-05-21T02:55:16.546Z,99014.91
2019-05-21T02:56:51.306Z,99018.13
2019-05-21T02:58:26.818Z,99011.45
2019-05-21T03:00:03.302Z,99009.39
2019-05-21T03:01:44.476Z,99009.58
2019-05-21T03:03:20.917Z,99008.09
2019-05-21T03:04:56.654Z,99012.16
2019-05-21T03:06:31.459Z,99012.88
2019-05-21T03:08:07.021Z,99023.08
2019-05-21T03:09:41.785Z,99012.75
2019-05-21T03:11:17.534Z,99023.33
2019-05-21T03:12:52.638Z,99022.30
2019-05-21T03:14:27.619Z,99021.83
2019-05-21T03:16:01.972Z,99024.56
2019-05-21T03:17:36.949Z,99018.92
2019-05-21T03:19:11.301Z,99021.11
2019-05-21T03:20:46.228Z,99016.76
2019-05-21T03:22:20.576Z,99016.55
2019-05-21T03:23:55.473Z,99020.86
2019-05-21T03:25:29.830Z,99014.16
2019-05-21T03:27:04.901Z,99017.70
2019-05-21T03:28:39.325Z,99012.06
2019-05-21T03:30:14.978Z,99015.05
2019-05-21T03:31:49.361Z,99011.73
2019-05-21T03:33:24.358Z,99019.02
2019-05-21T03:34:58.763Z,99014.89
2019-05-21T03:36:34.422Z,99007.55
2019-05-21T03:38:09.379Z,99016.66
2019-05-21T03:39:44.370Z,99013.05
2019-05-21T03:41:18.796Z,99010.95
2019-05-21T03:42:53.903Z,99014.83
2019-05-21T03:44:28.710Z,99016.45
2019-05-21T03:46:03.721Z,99009.20
2019-05-21T03:47:38.434Z,99013.22
2019-05-21T03:49:13.502Z,99009.61
2019-05-21T03:50:48.304Z,99015.19
2019-05-21T03:52:23.625Z,99014.50
2019-05-21T03:53:58.010Z,99018.84
2019-05-21T03:55:32.934Z,99023.01
2019-05-21T03:57:07.327Z,99019.33
2019-05-21T03:58:42.237Z,99021.87
2019-05-21T04:00:16.897Z,99027.03
2019-05-21T04:01:51.917Z,99023.87
2019-05-21T04:03:26.308Z,99027.16
2019-05-21T04:05:01.214Z,99017.17
2019-05-21T04:06:50.549Z,99018.95
2019-05-21T04:08:12.213Z,99024.24
2019-05-21T04:09:46.604Z,99017.40
2019-05-21T04:11:21.530Z,99016.53
2019-05-21T04:13:09.173Z,99017.48
2019-05-21T04:14:48.242Z,99014.46
2019-05-21T04:16:28.462Z,99021.16
2019-05-21T04:18:07.425Z,99019.35
2019-05-21T04:19:41.840Z,99016.38
2019-05-21T04:21:17.002Z,99017.13
2019-05-21T04:22:54.540Z,99019.36
2019-05-21T04:24:29.442Z,99023.30
2019-05-21T04:26:04.080Z,99025.89
2019-05-21T04:27:39.317Z,99026.23
2019-05-21T04:29:13.701Z,99029.33
2019-05-21T04:30:48.701Z,99030.09
2019-05-21T04:32:23.210Z,99033.26
2019-05-21T04:33:58.141Z,99032.30
2019-05-21T04:35:32.490Z,99034.01
2019-05-21T04:37:11.403Z,99034.45
2019-05-21T04:38:43.520Z,99039.92
2019-05-21T04:40:18.785Z,99047.11
2019-05-21T04:41:53.306Z,99047.23
2019-05-21T04:43:28.584Z,99055.96
2019-05-21T04:45:03.379Z,99057.44
2019-05-21T04:46:38.349Z,99055.87
2019-05-21T04:48:12.707Z,99056.51
2019-05-21T04:49:47.925Z,99062.23
2019-05-21T04:51:22.275Z,99068.52
2019-05-21T04:52:57.418Z,99067.36
2019-05-21T04:54:31.859Z,99075.28
2019-05-21T04:56:06.864Z,99067.74
2019-05-21T04:57:41.223Z,99067.78
2019-05-21T04:59:16.156Z,99064.75
2019-05-21T05:00:50.554Z,99055.30
2019-05-21T05:02:25.738Z,99059.54
2019-05-21T05:04:00.113Z,99060.22
2019-05-21T05:05:35.062Z,99064.20
2019-05-21T05:07:09.427Z,99062.30
2019-05-21T05:08:44.569Z,99072.84
2019-05-21T05:10:18.918Z,99064.45
2019-05-21T05:11:54.097Z,99072.25
2019-05-21T05:13:28.917Z,99066.52
2019-05-21T05:15:03.913Z,99068.11
2019-05-21T05:16:38.269Z,99070.91
2019-05-21T05:18:13.200Z,99076.66
2019-05-21T05:19:47.897Z,99073.84
2019-05-21T05:21:22.800Z,99078.67
2019-05-21T05:22:57.159Z,99083.06
2019-05-21T05:24:32.443Z,99083.84
2019-05-21T05:26:06.910Z,99081.45
2019-05-21T05:27:41.882Z,99077.78
2019-05-21T05:29:16.308Z,99075.98
2019-05-21T05:30:51.241Z,99072.92
2019-05-21T05:32:25.964Z,99075.30
2019-05-21T05:34:00.956Z,99079.22
2019-05-21T05:35:35.518Z,99087.61
2019-05-21T05:37:10.458Z,99089.19
2019-05-21T05:38:44.917Z,99086.61
2019-05-21T05:40:20.179Z,99090.50
2019-05-21T05:41:54.922Z,99084.50
2019-05-21T05:43:29.921Z,99074.55
2019-05-21T05:45:04.788Z,99077.94
2019-05-21T05:46:39.822Z,99078.40
2019-05-21T05:48:14.740Z,99083.77
2019-05-21T05:49:52.355Z,99078.45
2019-05-21T05:51:26.701Z,99084.63
2019-05-21T05:53:01.645Z,99086.58
2019-05-21T05:54:36.049Z,99090.95
2019-05-21T05:56:10.945Z,99087.88
2019-05-21T05:57:45.681Z,99086.73
2019-05-21T05:59:20.619Z,99081.78
2019-05-21T06:00:54.962Z,99086.08
2019-05-21T06:02:29.973Z,99078.39
2019-05-21T06:04:04.429Z,99084.97
2019-05-21T06:05:39.361Z,99082.63
2019-05-21T06:07:13.777Z,99081.28
2019-05-21T06:08:49.342Z,99074.92
2019-05-21T06:10:23.729Z,99077.03
2019-05-21T06:11:58.637Z,99083.02
2019-05-21T06:13:32.964Z,99075.33
2019-05-21T06:15:08.439Z,99069.28
2019-05-21T06:16:42.798Z,99067.94
2019-05-21T06:18:17.706Z,99068.94
2019-05-21T06:19:52.106Z,99063.63
2019-05-21T06:21:27.301Z,99063.95
2019-05-21T06:23:01.936Z,99053.89
2019-05-21T06:24:36.921Z,99066.45
2019-05-21T06:26:11.425Z,99062.59
2019-05-21T06:27:46.617Z,99069.28
2019-05-21T06:29:21.077Z,99068.00
2019-05-21T06:30:56.049Z,99068.95
2019-05-21T06:32:30.388Z,99061.44
2019-05-21T06:34:05.368Z,99062.81
2019-05-21T06:35:40.069Z,99064.59
2019-05-21T06:37:14.986Z,99066.25
2019-05-21T06:38:49.334Z,99071.74
2019-05-21T06:40:24.343Z,99060.81
2019-05-21T06:41:58.986Z,99053.92
2019-05-21T06:43:34.458Z,99067.70
2019-05-21T06:45:09.941Z,99073.31
2019-05-21T06:46:44.850Z,99069.88
2019-05-21T06:48:19.285Z,99084.70
2019-05-21T06:49:54.202Z,99082.77
2019-05-21T06:51:28.854Z,99085.13
2019-05-21T06:53:03.805Z,99087.13
2019-05-21T06:54:38.218Z,99090.09
2019-05-21T06:56:13.117Z,99093.84
2019-05-21T06:57:47.477Z,99097.95
2019-05-21T06:59:22.402Z,99108.13
2019-05-21T07:00:56.744Z,99103.21
2019-05-21T07:02:31.692Z,99114.14
2019-05-21T07:04:06.267Z,99113.02
2019-05-21T07:05:57.495Z,99110.89
2019-05-21T07:07:17.250Z,99115.45
2019-05-21T07:08:52.450Z,99111.70
2019-05-21T07:10:26.891Z,99101.19
2019-05-21T07:12:02.119Z,99101.00
2019-05-21T07:13:36.869Z,99109.31
2019-05-21T07:15:11.994Z,99112.94
2019-05-21T07:16:46.438Z,99112.44
2019-05-21T07:18:21.380Z,99111.38
2019-05-21T07:19:56.078Z,99119.17
2019-05-21T07:21:31.041Z,99126.99
2019-05-21T07:23:09.095Z,99117.25
2019-05-21T07:24:44.104Z,99115.20
2019-05-21T07:26:18.583Z,99122.42
2019-05-21T07:27:53.621Z,99127.31
2019-05-21T07:29:27.971Z,99130.78
2019-05-21T07:31:03.646Z,99133.27
2019-05-21T07:32:39.693Z,99132.97
2019-05-21T07:34:15.246Z,99136.62
2019-05-21T07:35:50.110Z,99126.74
2019-05-21T07:37:28.458Z,99127.52
2019-05-21T07:39:10.109Z,99129.41
2019-05-21T07:41:10.295Z,99141.97
2019-05-21T07:42:46.285Z,99137.58
2019-05-21T07:44:20.765Z,99141.97
2019-05-21T07:45:55.728Z,99136.64
2019-05-21T07:47:30.769Z,99130.82
2019-05-21T07:49:05.879Z,99142.61
2019-05-21T07:50:40.259Z,99132.34
2019-05-21T07:52:16.193Z,99132.50
2019-05-21T07:53:50.861Z,99130.83
2019-05-21T07:55:25.777Z,99141.03
2019-05-21T07:57:00.124Z,99133.48
2019-05-21T07:58:35.077Z,99129.22
2019-05-21T08:00:11.373Z,99133.20
2019-05-21T08:01:46.307Z,99132.50
2019-05-21T08:03:20.755Z,99143.10
2019-05-21T08:04:55.679Z,99141.34
2019-05-21T08:06:30.109Z,99138.41
2019-05-21T08:08:05.078Z,99145.95
2019-05-21T08:09:40.042Z,99144.11
2019-05-21T08:11:14.939Z,99143.50
2019-05-21T08:12:49.705Z,99140.03
2019-05-21T08:14:24.923Z,99139.85
2019-05-21T08:15:59.268Z,99138.58
2019-05-21T08:17:34.161Z,99138.55
2019-05-21T08:19:08.797Z,99139.72
2019-05-21T08:20:43.774Z,99136.17
2019-05-21T08:22:18.499Z,99143.34
2019-05-21T08:23:53.449Z,99134.78
2019-05-21T08:25:27.811Z,99135.88
2019-05-21T08:27:02.730Z,99134.02
2019-05-21T08:28:37.070Z,99134.33
2019-05-21T08:30:12.638Z,99127.83
2019-05-21T08:31:47.173Z,99132.59
2019-05-21T08:33:22.574Z,99136.17
2019-05-21T08:34:57.627Z,99138.00
2019-05-21T08:36:32.617Z,99130.64
2019-05-21T08:38:07.100Z,99133.41
2019-05-21T08:39:42.069Z,99129.91
2019-05-21T08:41:16.439Z,99125.63
2019-05-21T08:42:51.337Z,99138.91
2019-05-21T08:44:26.015Z,99136.27
2019-05-21T08:46:01.197Z,99138.41
2019-05-21T08:47:35.890Z,99141.24
2019-05-21T08:49:10.787Z,99132.57
2019-05-21T08:50:45.500Z,99135.80
2019-05-21T08:52:21.024Z,99141.03
2019-05-21T08:53:55.868Z,99143.45
2019-05-21T08:55:31.369Z,99145.56
2019-05-21T08:57:06.160Z,99142.86
2019-05-21T08:58:41.656Z,99145.25
2019-05-21T09:00:18.896Z,99146.62
2019-05-21T09:01:58.815Z,99133.66
2019-05-21T09:03:30.979Z,99146.54
2019-05-21T09:05:07.822Z,99153.00
2019-05-21T09:06:42.674Z,99146.37
2019-05-21T09:08:18.166Z,99153.67
2019-05-21T09:09:52.685Z,99129.38
2019-05-21T09:11:27.627Z,99142.05
2019-05-21T09:13:01.981Z,99154.48
2019-05-21T09:14:37.254Z,99153.36
2019-05-21T09:16:12.465Z,99148.84
2019-05-21T09:17:47.871Z,99142.48
2019-05-21T09:19:22.820Z,99141.14
2019-05-21T09:20:58.300Z,99145.91
2019-05-21T09:22:33.593Z,99153.84
2019-05-21T09:24:08.667Z,99160.70
2019-05-21T09:25:43.023Z,99154.43
2019-05-21T09:27:18.010Z,99157.83
2019-05-21T09:28:52.354Z,99157.71
2019-05-21T09:30:27.450Z,99143.05
2019-05-21T09:32:01.828Z,99156.24
2019-05-21T09:33:36.742Z,99152.25
2019-05-21T09:35:11.262Z,99157.72
2019-05-21T09:36:46.177Z,99155.55
2019-05-21T09:38:21.417Z,99143.84
2019-05-21T09:39:57.191Z,99152.78
2019-05-21T09:41:32.029Z,99157.56
2019-05-21T09:43:06.969Z,99143.73
2019-05-21T09:44:41.345Z,99153.56
2019-05-21T09:46:16.978Z,99158.56
2019-05-21T09:47:51.777Z,99167.53
2019-05-21T09:49:26.692Z,99169.34
2019-05-21T09:51:01.124Z,99167.06
2019-05-21T09:52:36.014Z,99162.87
2019-05-21T09:54:10.393Z,99158.97
2019-05-21T09:55:45.572Z,99160.39
2019-05-21T09:57:26.546Z,99166.53
2019-05-21T09:59:07.998Z,99159.72
2019-05-21T10:01:04.622Z,99144.70
2019-05-21T10:02:39.002Z,99143.17
2019-05-21T10:04:14.086Z,99151.53
2019-05-21T10:05:50.922Z,99157.72
2019-05-21T10:07:38.919Z,99166.45
2019-05-21T10:09:04.786Z,99159.39
2019-05-21T10:10:40.014Z,99168.90
2019-05-21T10:12:14.396Z,99167.90
2019-05-21T10:13:49.550Z,99164.51
2019-05-21T10:15:24.418Z,99178.54
2019-05-21T10:16:59.321Z,99176.91
2019-05-21T10:18:33.683Z,99165.94
2019-05-21T10:20:08.852Z,99165.73
2019-05-21T10:21:43.664Z,99159.94
2019-05-21T10:23:18.905Z,99160.66
2019-05-21T10:24:53.329Z,99186.89
2019-05-21T10:26:28.372Z,99178.14
2019-05-21T10:28:03.049Z,99180.63
2019-05-21T10:29:37.969Z,99188.53
2019-05-21T10:31:12.339Z,99171.08
2019-05-21T10:32:47.320Z,99176.56
2019-05-21T10:34:22.000Z,99174.31
2019-05-21T10:35:56.894Z,99185.08
2019-05-21T10:37:31.356Z,99185.14
2019-05-21T10:39:07.462Z,99185.08
2019-05-21T10:40:41.954Z,99178.06
2019-05-21T10:42:17.160Z,99175.41
2019-05-21T10:43:51.821Z,99168.59
2019-05-21T10:45:26.880Z,99155.91
2019-05-21T10:47:02.003Z,99174.34
2019-05-21T10:48:37.563Z,99182.48
2019-05-21T10:50:13.065Z,99172.20
2019-05-21T10:51:48.572Z,99186.88
2019-05-21T10:53:23.341Z,99186.52
2019-05-21T10:54:59.128Z,99183.56
2019-05-21T10:56:47.298Z,99177.06
2019-05-21T10:58:11.458Z,99162.24
2019-05-21T10:59:46.386Z,99170.70
2019-05-21T11:01:43.272Z,99172.23
2019-05-21T11:03:22.448Z,99172.83
2019-05-21T11:05:22.375Z,99169.72
2019-05-21T11:06:57.212Z,99167.19
2019-05-21T11:08:32.732Z,99169.60
2019-05-21T11:10:09.558Z,99158.04
2019-05-21T11:11:45.206Z,99173.47
2019-05-21T11:13:20.244Z,99164.03
2019-05-21T11:14:55.764Z,99159.28
2019-05-21T11:16:30.197Z,99156.09
2019-05-21T11:18:10.909Z,99157.03
2019-05-21T11:19:41.377Z,99152.49
2019-05-21T11:21:16.633Z,99152.70
2019-05-21T11:22:51.128Z,99158.74
2019-05-21T11:24:26.027Z,99155.50
2019-05-21T11:26:00.641Z,99164.59
2019-05-21T11:27:35.621Z,99150.91
2019-05-21T11:29:10.053Z,99152.77
2019-05-21T11:30:45.270Z,99151.02
2019-05-21T11:32:19.633Z,99151.76
2019-05-21T11:33:54.602Z,99150.96
2019-05-21T11:35:30.062Z,99149.11
2019-05-21T11:37:05.779Z,99146.34
2019-05-21T11:38:40.560Z,99169.61
2019-05-21T11:40:16.469Z,99159.88
2019-05-21T11:41:51.688Z,99153.91
2019-05-21T11:43:26.881Z,99156.80
2019-05-21T11:45:01.233Z,99166.75
2019-05-21T11:46:36.402Z,99156.95
2019-05-21T11:48:11.006Z,99158.54
2019-05-21T11:49:45.934Z,99150.22
2019-05-21T11:51:20.426Z,99153.36
2019-05-21T11:52:55.380Z,99147.94
2019-05-21T11:54:29.823Z,99159.30
2019-05-21T11:56:04.887Z,99168.83
2019-05-21T11:57:39.244Z,99171.61
2019-05-21T11:59:14.173Z,99173.36
2019-05-21T12:00:48.724Z,99171.50
2019-05-21T12:02:23.633Z,99168.81
2019-05-21T12:03:58.089Z,99172.17
2019-05-21T12:05:33.253Z,99165.76
2019-05-21T12:07:07.601Z,99147.53
2019-05-21T12:08:55.628Z,99153.38
2019-05-21T12:10:18.689Z,99159.29
2019-05-21T12:11:53.613Z,99155.67
2019-05-21T12:13:28.030Z,99157.51
2019-05-21T12:15:02.966Z,99164.12
2019-05-21T12:16:37.526Z,99164.61
2019-05-21T12:18:12.501Z,99160.17
2019-05-21T12:19:46.846Z,99164.38
2019-05-21T12:21:21.815Z,99167.96
2019-05-21T12:22:56.766Z,99163.52
2019-05-21T12:24:31.708Z,99149.95
2019-05-21T12:26:06.101Z,99146.13
2019-05-21T12:27:41.001Z,99140.64
2019-05-21T12:29:15.449Z,99140.37
2019-05-21T12:30:50.400Z,99148.50
2019-05-21T12:32:24.881Z,99143.38
2019-05-21T12:34:00.180Z,99144.09
2019-05-21T12:35:34.764Z,99139.16
2019-05-21T12:37:10.085Z,99137.54
2019-05-21T12:38:45.301Z,99142.38
2019-05-21T12:40:21.147Z,99135.78
2019-05-21T12:41:55.539Z,99127.86
2019-05-21T12:43:32.361Z,99132.04
2019-05-21T12:45:07.649Z,99127.76
2019-05-21T12:46:42.804Z,99130.27
2019-05-21T12:48:17.215Z,99150.91
2019-05-21T12:49:52.562Z,99140.98
2019-05-21T12:51:26.978Z,99138.86
2019-05-21T12:53:01.907Z,99139.78
2019-05-21T12:54:36.836Z,99146.60
2019-05-21T12:56:11.977Z,99145.44
2019-05-21T12:57:46.316Z,99155.41
2019-05-21T12:59:21.219Z,99154.31
2019-05-21T13:00:55.577Z,99154.30
2019-05-21T13:02:30.498Z,99146.98
2019-05-21T13:04:05.099Z,99144.45
2019-05-21T13:05:40.091Z,99155.20
2019-05-21T13:07:14.482Z,99145.91
2019-05-21T13:08:49.517Z,99149.80
2019-05-21T13:10:26.813Z,99140.98
2019-05-21T13:12:00.814Z,99141.25
2019-05-21T13:13:35.892Z,99145.38
2019-05-21T13:15:11.096Z,99146.47
2019-05-21T13:16:45.436Z,99141.76
2019-05-21T13:18:20.611Z,99142.17
2019-05-21T13:19:54.964Z,99129.34
2019-05-21T13:21:29.872Z,99147.77
2019-05-21T13:23:04.863Z,99157.14
2019-05-21T13:24:40.029Z,99150.86
2019-05-21T13:26:14.605Z,99150.72
2019-05-21T13:27:49.724Z,99148.82
2019-05-21T13:29:24.166Z,99143.61
2019-05-21T13:30:59.416Z,99153.05
2019-05-21T13:32:33.778Z,99159.06
2019-05-21T13:34:09.011Z,99158.22
2019-05-21T13:35:43.789Z,99157.73
2019-05-21T13:37:19.016Z,99153.70
2019-05-21T13:38:53.393Z,99149.89
2019-05-21T13:40:28.437Z,99148.83
2019-05-21T13:42:02.983Z,99142.27
2019-05-21T13:43:38.234Z,99156.13
2019-05-21T13:45:12.818Z,99156.91
2019-05-21T13:46:47.709Z,99149.55
2019-05-21T13:48:22.127Z,99144.27
2019-05-21T13:49:57.034Z,99151.89
2019-05-21T13:51:31.736Z,99153.84
2019-05-21T13:53:06.696Z,99162.68
2019-05-21T13:54:41.132Z,99165.23
2019-05-21T13:56:16.766Z,99167.20
2019-05-21T13:57:51.699Z,99160.91
2019-05-21T13:59:27.342Z,99162.97
2019-05-21T14:01:04.284Z,99157.91
2019-05-21T14:02:39.921Z,99155.72
2019-05-21T14:04:15.826Z,99154.00
2019-05-21T14:05:51.174Z,99152.38
2019-05-21T14:07:25.812Z,99143.84
2019-05-21T14:09:01.179Z,99154.80
2019-05-21T14:10:35.699Z,99157.98
2019-05-21T14:12:10.766Z,99154.31
2019-05-21T14:13:45.488Z,99157.89
2019-05-21T14:15:20.369Z,99163.09
2019-05-21T14:16:54.722Z,99160.88
2019-05-21T14:18:30.034Z,99163.53
2019-05-21T14:20:04.930Z,99161.68
2019-05-21T14:21:39.837Z,99156.23
2019-05-21T14:23:14.321Z,99159.16
2019-05-21T14:24:49.287Z,99165.94
2019-05-21T14:26:24.203Z,99167.71
2019-05-21T14:27:59.299Z,99167.42
2019-05-21T14:29:33.972Z,99164.37
2019-05-21T14:31:08.945Z,99164.43
2019-05-21T14:32:43.709Z,99161.81
2019-05-21T14:34:18.597Z,99159.67
2019-05-21T14:35:53.195Z,99157.06
2019-05-21T14:37:28.383Z,99166.55
2019-05-21T14:39:06.468Z,99163.19
2019-05-21T14:40:41.378Z,99163.58
2019-05-21T14:42:15.720Z,99161.45
2019-05-21T14:43:50.633Z,99161.94
2019-05-21T14:45:28.952Z,99164.80
2019-05-21T14:47:01.855Z,99160.59
2019-05-21T14:48:36.671Z,99156.73
2019-05-21T14:50:12.114Z,99159.34
2019-05-21T14:51:46.739Z,99158.42
2019-05-21T14:53:21.925Z,99158.27
2019-05-21T14:54:56.560Z,99153.94
2019-05-21T14:56:32.058Z,99156.84
2019-05-21T14:58:07.066Z,99160.66
2019-05-21T14:59:42.344Z,99163.36
2019-05-21T15:01:16.813Z,99157.13
2019-05-21T15:02:51.726Z,99161.53
2019-05-21T15:04:26.298Z,99163.16
2019-05-21T15:06:01.614Z,99163.08
2019-05-21T15:07:35.950Z,99163.30
2019-05-21T15:09:10.854Z,99166.68
2019-05-21T15:10:48.922Z,99166.08
2019-05-21T15:12:21.935Z,99164.58
2019-05-21T15:13:56.300Z,99159.84
2019-05-21T15:15:31.372Z,99167.80
2019-05-21T15:17:06.075Z,99163.89
2019-05-21T15:18:41.470Z,99166.83
2019-05-21T15:20:23.249Z,99171.55
2019-05-21T15:21:58.253Z,99167.83
2019-05-21T15:23:32.585Z,99165.63
2019-05-21T15:25:08.090Z,99170.01
2019-05-21T15:26:42.791Z,99164.33
2019-05-21T15:28:17.707Z,99161.48
2019-05-21T15:29:52.067Z,99163.86
2019-05-21T15:31:27.004Z,99162.18
2019-05-21T15:33:01.363Z,99170.52
2019-05-21T15:34:36.379Z,99167.91
2019-05-21T15:36:10.871Z,99172.17
2019-05-21T15:37:45.778Z,99171.21
2019-05-21T15:39:20.133Z,99176.74
2019-05-21T15:41:09.603Z,99178.34
2019-05-21T15:42:31.164Z,99176.08
2019-05-21T15:44:06.325Z,99181.77
2019-05-21T15:45:40.920Z,99180.34
2019-05-21T15:47:16.239Z,99185.67
2019-05-21T15:48:50.672Z,99181.73
2019-05-21T15:50:25.651Z,99188.45
2019-05-21T15:52:00.283Z,99193.22
2019-05-21T15:53:35.280Z,99191.59
2019-05-21T15:55:09.705Z,99187.61
2019-05-21T15:56:44.631Z,99188.86
2019-05-21T15:58:19.434Z,99190.16
2019-05-21T15:59:54.770Z,99189.80
2019-05-21T16:01:29.201Z,99193.31
2019-05-21T16:03:04.137Z,99194.70
2019-05-21T16:04:38.561Z,99191.91
2019-05-21T16:06:13.851Z,99194.30
2019-05-21T16:07:48.242Z,99201.37
2019-05-21T16:09:23.283Z,99204.88
2019-05-21T16:10:57.748Z,99211.00
2019-05-21T16:12:32.674Z,99205.14
2019-05-21T16:14:07.169Z,99210.11
2019-05-21T16:15:42.059Z,99203.88
2019-05-21T16:17:16.398Z,99205.28
2019-05-21T16:18:51.330Z,99204.42
2019-05-21T16:20:25.805Z,99212.39
2019-05-21T16:22:00.705Z,99200.80
2019-05-21T16:23:35.072Z,99208.09
2019-05-21T16:25:10.521Z,99204.82
2019-05-21T16:26:44.933Z,99203.28
2019-05-21T16:28:20.092Z,99217.38
2019-05-21T16:29:54.510Z,99212.56
2019-05-21T16:31:29.841Z,99210.26
2019-05-21T16:33:04.355Z,99211.16
2019-05-21T16:34:39.558Z,99207.27
2019-05-21T16:36:13.978Z,99205.12
2019-05-21T16:37:49.511Z,99207.53
2019-05-21T16:39:25.338Z,99205.16
2019-05-21T16:41:00.743Z,99209.67
2019-05-21T16:42:35.807Z,99212.34
2019-05-21T16:44:11.210Z,99219.12
2019-05-21T16:45:46.543Z,99223.07
2019-05-21T16:47:21.831Z,99223.36
2019-05-21T16:48:56.933Z,99223.07
2019-05-21T16:50:32.246Z,99228.04
2019-05-21T16:52:07.270Z,99219.99
2019-05-21T16:53:42.643Z,99224.14
2019-05-21T16:55:17.694Z,99223.09
2019-05-21T16:56:52.933Z,99226.90
2019-05-21T16:58:27.606Z,99226.08
2019-05-21T17:00:06.387Z,99233.83
2019-05-21T17:01:41.023Z,99233.33
2019-05-21T17:03:16.015Z,99235.71
2019-05-21T17:04:50.624Z,99238.04
2019-05-21T17:06:25.523Z,99244.72
2019-05-21T17:08:00.123Z,99243.73
2019-05-21T17:09:35.303Z,99245.70
2019-05-21T17:11:09.903Z,99246.20
2019-05-21T17:12:45.067Z,99244.39
2019-05-21T17:14:19.705Z,99246.55
2019-05-21T17:15:54.604Z,99245.56
2019-05-21T17:17:29.241Z,99245.68
2019-05-21T17:19:04.318Z,99247.27
2019-05-21T17:20:38.913Z,99256.27
2019-05-21T17:22:13.875Z,99256.56
2019-05-21T17:23:48.519Z,99252.42
2019-05-21T17:25:23.433Z,99251.02
2019-05-21T17:26:58.025Z,99254.32
2019-05-21T17:28:33.185Z,99253.86
2019-05-21T17:30:08.112Z,99250.27
2019-05-21T17:31:43.117Z,99251.00
2019-05-21T17:33:17.565Z,99252.02
2019-05-21T17:34:52.726Z,99256.09
2019-05-21T17:36:27.064Z,99259.59
2019-05-21T17:38:01.997Z,99259.70
2019-05-21T17:39:36.565Z,99267.78
2019-05-21T17:41:11.811Z,99256.32
2019-05-21T17:42:46.764Z,99266.18
2019-05-21T17:44:24.805Z,99268.81
2019-05-21T17:45:57.850Z,99265.03
2019-05-21T17:47:32.846Z,99264.05
2019-05-21T17:49:07.205Z,99261.91
2019-05-21T17:50:42.249Z,99263.23
2019-05-21T17:52:16.691Z,99265.86
2019-05-21T17:53:51.584Z,99262.25
2019-05-21T17:55:25.993Z,99262.75
2019-05-21T17:57:03.753Z,99257.01
2019-05-21T17:58:38.093Z,99264.23
2019-05-21T18:00:13.609Z,99266.20
2019-05-21T18:01:48.556Z,99264.91
2019-05-21T18:03:23.620Z,99268.34
2019-05-21T18:04:58.436Z,99272.29
2019-05-21T18:06:33.838Z,99271.30
2019-05-21T18:08:08.617Z,99272.78
2019-05-21T18:09:43.622Z,99271.98
2019-05-21T18:11:18.109Z,99270.17
2019-05-21T18:12:53.072Z,99277.06
2019-05-21T18:14:28.582Z,99273.64
2019-05-21T18:16:04.127Z,99275.10
2019-05-21T18:17:38.745Z,99276.73
2019-05-21T18:19:15.082Z,99284.61
2019-05-21T18:20:50.083Z,99282.30
2019-05-21T18:22:26.443Z,99283.95
2019-05-21T18:24:01.025Z,99293.63
2019-05-21T18:25:36.184Z,99293.73
2019-05-21T18:27:10.613Z,99296.04
2019-05-21T18:28:45.937Z,99298.48
2019-05-21T18:30:22.717Z,99294.89
2019-05-21T18:31:57.682Z,99289.16
2019-05-21T18:33:32.364Z,99291.28
2019-05-21T18:35:08.114Z,99296.18
2019-05-21T18:36:42.529Z,99297.00
2019-05-21T18:38:17.454Z,99305.84
2019-05-21T18:39:52.135Z,99305.50
2019-05-21T18:41:27.347Z,99310.25